Main page
METAR-TAF:

METAR-TAF

Airports :

Kuwait International Airport

Kuwait City, Kuwait

latitude: 29-13N, longitude: 047-59E, elevation: 55 m

Current weather observation

The report was made 34 minutes ago, at 19:00 UTC
Wind 3 kt from the South
Temperature 32°C
Humidity 71%
Pressure 1006 hPa
Visibility: 8000 m
Clear sky

METAR: OKBK 191900Z 18003KT 8000 SKC 32/26 Q1006 NOSIG

Time: 22:34 (19:34 UTC)

Forecast

The report was made 2 hours and 49 minutes ago, at 16:45 UTC
Forecast valid from 19 at 18 UTC to 20 at 24 UTC
Wind 8 kt from the South/Southeast
Visibility: 6000 m
Temporary
from 19 at 18 UTC to 20 at 04 UTC
Wind 3 kt from variable directions
Visibility: 1500 m
mist

TAF: OKBK 191645Z 1918/2024 15008KT 6000 NSC TEMPO 1918/2004 VRB03KT 1500 BR

Weather observations and forecasts of more than 4000 airports (METAR and TAF reports).

The available stations are represented by yellow and red dots on the map.

Hover mouse over dot to see the name of the station.

Then click to see weather observations and forecasts.

To change the map : click on the green buttons with a black cross to zoom in, on the green button with a dash to zoom out, or on the green arrows for adjacent maps.


METAR-TAF: